Time;durP1;ratioP1;P1;durP2;ratioP2;P2;SDS_P1;SDS_P2;PMS_P1;PMS_P2;Temp;Humidity;BMP_temperature;BMP_pressure;BME280_temperature;BME280_humidity;BME280_pressure;Samples;Min_cycle;Max_cycle;Signal;HPM_P1;HPM_P2
2021/07/09 00:01:39;;;;;;;14.18;9.75;;;;;;;14.56;75.60;102339.38;5082587;28;20584;-68
2021/07/09 00:04:05;;;;;;;18.48;10.52;;;;;;;14.55;75.71;102335.81;5081160;28;20032;-67
2021/07/09 00:06:30;;;;;;;13.52;9.90;;;;;;;14.54;75.67;102323.50;5076366;28;20043;-66
2021/07/09 00:08:56;;;;;;;14.25;9.55;;;;;;;14.52;75.86;102321.72;5062096;28;20037;-68
2021/07/09 00:11:21;;;;;;;12.85;9.65;;;;;;;14.50;75.88;102324.34;5060744;28;20021;-67
2021/07/09 00:13:46;;;;;;;14.35;9.80;;;;;;;14.50;76.26;102323.44;5080088;28;20035;-68
2021/07/09 00:16:15;;;;;;;14.02;9.05;;;;;;;14.47;76.31;102324.31;5063392;28;20020;-68
2021/07/09 00:18:40;;;;;;;15.65;10.10;;;;;;;14.47;76.55;102331.38;5083341;28;20052;-67
2021/07/09 00:21:06;;;;;;;14.15;10.02;;;;;;;14.41;76.67;102325.19;5083458;28;20045;-67
2021/07/09 00:23:32;;;;;;;15.40;10.20;;;;;;;14.38;76.42;102325.16;5082905;28;20033;-67
2021/07/09 00:25:57;;;;;;;15.35;9.43;;;;;;;14.36;76.48;102318.97;5083868;28;20037;-68
2021/07/09 00:28:22;;;;;;;17.00;10.07;;;;;;;14.35;76.53;102317.22;5082792;28;20055;-69
2021/07/09 00:30:48;;;;;;;13.35;10.27;;;;;;;14.35;76.68;102318.97;5083455;28;20031;-67
2021/07/09 00:33:13;;;;;;;11.77;9.07;;;;;;;14.35;76.44;102317.22;5059768;28;20391;-67
2021/07/09 00:35:39;;;;;;;13.38;9.90;;;;;;;14.35;76.20;102319.84;5065854;28;20032;-67
2021/07/09 00:38:04;;;;;;;15.35;10.00;;;;;;;14.36;76.16;102323.38;5083786;28;20032;-68
2021/07/09 00:40:29;;;;;;;16.52;10.73;;;;;;;14.35;76.10;102311.94;5065436;28;20028;-67
2021/07/09 00:42:55;;;;;;;16.70;11.60;;;;;;;14.33;76.51;102310.13;5083160;28;20058;-68
2021/07/09 00:45:20;;;;;;;16.55;12.63;;;;;;;14.32;76.42;102308.38;5083934;28;20440;-68
2021/07/09 00:47:49;;;;;;;19.17;13.20;;;;;;;14.30;76.61;102297.78;5063147;28;20044;-68
2021/07/09 00:50:15;;;;;;;18.95;13.52;;;;;;;14.31;76.30;102296.00;5069792;28;20037;-67
2021/07/09 00:52:40;;;;;;;19.58;14.10;;;;;;;14.29;76.41;102306.59;5065577;28;20029;-67
2021/07/09 00:55:06;;;;;;;18.35;13.27;;;;;;;14.26;76.34;102317.16;5080455;28;20024;-67
2021/07/09 00:57:32;;;;;;;20.23;14.00;;;;;;;14.24;76.91;102310.97;5083379;28;20032;-68
2021/07/09 00:59:57;;;;;;;22.33;14.48;;;;;;;14.21;77.16;102306.56;5063639;28;20033;-68
2021/07/09 01:02:23;;;;;;;20.42;13.93;;;;;;;14.22;76.83;102310.09;5061294;28;20036;-68
2021/07/09 01:04:49;;;;;;;17.80;12.93;;;;;;;14.22;76.92;102307.44;5076528;28;20077;-67
2021/07/09 01:07:15;;;;;;;17.88;12.73;;;;;;;14.21;77.31;102303.00;5082971;28;20029;-68
2021/07/09 01:09:40;;;;;;;18.48;12.75;;;;;;;14.18;77.17;102310.94;5082362;28;20101;-68
2021/07/09 01:12:06;;;;;;;17.35;11.93;;;;;;;14.14;76.97;102310.03;5080941;28;20488;-68
2021/07/09 01:14:31;;;;;;;19.92;12.70;;;;;;;14.12;77.17;102313.50;5064682;28;20032;-68
2021/07/09 01:16:57;;;;;;;16.35;12.98;;;;;;;14.13;77.45;102317.94;5082048;28;20032;-68
2021/07/09 01:19:22;;;;;;;18.67;13.63;;;;;;;14.14;77.42;102322.34;5083596;28;20039;-67
2021/07/09 01:21:48;;;;;;;20.42;13.20;;;;;;;14.11;76.96;102319.69;5065393;28;20434;-68
2021/07/09 01:24:13;;;;;;;18.75;13.60;;;;;;;14.03;76.98;102311.72;5082594;28;20383;-67
2021/07/09 01:26:39;;;;;;;20.55;13.70;;;;;;;14.00;77.32;102311.69;5083185;28;20044;-68
2021/07/09 01:29:04;;;;;;;21.58;14.10;;;;;;;13.96;77.59;102309.91;5082579;28;20036;-68
2021/07/09 01:31:30;;;;;;;21.73;14.98;;;;;;;13.96;77.76;102308.13;5058484;28;20108;-68
2021/07/09 01:33:55;;;;;;;17.80;13.93;;;;;;;13.98;77.18;102310.78;5044075;28;20068;-68
2021/07/09 01:36:21;;;;;;;21.45;15.55;;;;;;;13.98;77.46;102305.50;5078503;28;20164;-68
2021/07/09 01:38:47;;;;;;;20.65;14.25;;;;;;;13.97;77.66;102304.63;5082135;28;20040;-68
2021/07/09 01:41:13;;;;;;;21.38;15.20;;;;;;;13.97;77.49;102298.44;5082540;28;20028;-68
2021/07/09 01:43:38;;;;;;;20.65;14.80;;;;;;;13.98;77.25;102297.56;5057051;28;20038;-68
2021/07/09 01:46:03;;;;;;;20.77;14.68;;;;;;;13.98;77.22;102305.50;5083038;28;20089;-69
2021/07/09 01:48:29;;;;;;;21.15;14.98;;;;;;;13.95;77.40;102303.72;5083425;28;20032;-68
2021/07/09 01:50:54;;;;;;;22.00;15.50;;;;;;;13.94;77.16;102307.22;5083063;28;20025;-68
2021/07/09 01:53:19;;;;;;;21.38;14.45;;;;;;;13.95;77.55;102305.47;5084068;28;20101;-68
2021/07/09 01:55:45;;;;;;;24.13;15.70;;;;;;;13.94;77.44;102299.31;5086306;28;20024;-67
2021/07/09 01:58:10;;;;;;;23.98;15.07;;;;;;;13.94;77.47;102295.78;5086459;28;20024;-68
2021/07/09 02:00:36;;;;;;;20.40;13.02;;;;;;;13.92;77.33;102302.81;5085111;28;20036;-68
2021/07/09 02:03:02;;;;;;;20.88;12.57;;;;;;;13.91;77.72;102299.25;5086247;28;20029;-68
2021/07/09 02:05:28;;;;;;;23.52;13.00;;;;;;;13.86;77.29;102298.38;5068376;28;20025;-68
2021/07/09 02:07:54;;;;;;;19.30;12.63;;;;;;;13.81;77.76;102282.47;5085834;28;20028;-68
2021/07/09 02:10:20;;;;;;;23.80;13.10;;;;;;;13.83;77.65;102293.06;5056410;28;20039;-68
2021/07/09 02:12:46;;;;;;;17.58;11.88;;;;;;;13.84;77.68;102294.84;5085564;28;20025;-68
2021/07/09 02:15:14;;;;;;;18.48;13.30;;;;;;;13.85;77.81;102291.31;5088761;28;20051;-67
2021/07/09 02:17:39;;;;;;;22.80;14.10;;;;;;;13.86;78.07;102293.09;5065597;28;20029;-67
2021/07/09 02:20:09;;;;;;;24.10;13.35;;;;;;;13.86;78.13;102298.38;5086716;28;20044;-68
2021/07/09 02:22:34;;;;;;;22.02;13.63;;;;;;;13.86;78.01;102295.72;5085143;28;20016;-67
2021/07/09 02:24:59;;;;;;;20.30;13.55;;;;;;;13.87;77.93;102292.19;5057909;28;20053;-67
2021/07/09 02:27:25;;;;;;;21.10;12.68;;;;;;;13.86;78.02;102293.09;5067978;28;20040;-68
2021/07/09 02:29:53;;;;;;;21.48;13.13;;;;;;;13.87;77.93;102291.31;5086362;28;20032;-68
2021/07/09 02:32:18;;;;;;;20.33;13.88;;;;;;;13.87;77.93;102299.25;5085811;28;20083;-67
2021/07/09 02:34:43;;;;;;;21.90;13.73;;;;;;;13.86;78.24;102294.84;5085553;28;20036;-68
2021/07/09 02:37:09;;;;;;;23.85;15.73;;;;;;;13.86;77.95;102298.38;5084378;28;20035;-69
2021/07/09 02:39:35;;;;;;;26.48;15.60;;;;;;;13.85;77.88;102301.88;5051472;28;20020;-68
2021/07/09 02:42:00;;;;;;;24.33;14.98;;;;;;;13.83;77.75;102291.28;5086046;28;20074;-69
2021/07/09 02:44:26;;;;;;;26.25;15.73;;;;;;;13.80;77.53;102293.03;5066523;28;20025;-68
2021/07/09 02:46:51;;;;;;;27.95;16.45;;;;;;;13.76;77.84;102301.78;5085644;28;20142;-68
2021/07/09 02:49:17;;;;;;;23.50;15.75;;;;;;;13.72;77.66;102292.94;5050275;28;20031;-68
2021/07/09 02:51:42;;;;;;;24.02;15.75;;;;;;;13.68;78.08;102291.16;5085933;28;20032;-69
2021/07/09 02:54:08;;;;;;;27.50;15.57;;;;;;;13.64;78.31;102286.72;5085735;28;20055;-68
2021/07/09 02:56:33;;;;;;;24.38;15.38;;;;;;;13.61;77.99;102287.59;5082129;28;20040;-68
2021/07/09 02:58:59;;;;;;;26.42;15.52;;;;;;;13.58;78.10;102282.28;5065990;28;20039;-68
2021/07/09 03:01:25;;;;;;;23.25;15.02;;;;;;;13.56;78.36;102283.16;5084327;28;20034;-69
2021/07/09 03:03:51;;;;;;;24.02;15.23;;;;;;;13.54;78.28;102280.50;5084407;28;20024;-68
2021/07/09 03:06:16;;;;;;;21.45;14.10;;;;;;;13.55;78.15;102276.97;5085978;28;20047;-69
2021/07/09 03:08:42;;;;;;;22.83;14.00;;;;;;;13.56;78.30;102283.16;5085212;28;20032;-67
2021/07/09 03:11:08;;;;;;;22.10;13.95;;;;;;;13.56;78.34;102277.88;5084323;28;20058;-67
2021/07/09 03:13:33;;;;;;;26.80;14.65;;;;;;;13.56;78.08;102281.38;5064254;28;20032;-69
2021/07/09 03:15:58;;;;;;;21.27;13.48;;;;;;;13.56;78.55;102277.88;5085379;28;20089;-68
2021/07/09 03:18:24;;;;;;;21.40;13.05;;;;;;;13.55;78.52;102270.81;5084421;28;20029;-68
2021/07/09 03:20:49;;;;;;;21.45;12.27;;;;;;;13.54;78.24;102275.22;5085805;28;20032;-68
2021/07/09 03:23:15;;;;;;;21.00;11.82;;;;;;;13.56;78.46;102277.88;5083985;28;20153;-70
2021/07/09 03:25:41;;;;;;;19.65;13.20;;;;;;;13.56;78.36;102276.09;5085574;28;20059;-68
2021/07/09 03:28:06;;;;;;;24.38;13.52;;;;;;;13.57;78.69;102274.34;5085018;28;20487;-68
2021/07/09 03:30:31;;;;;;;20.77;12.77;;;;;;;13.56;78.18;102275.22;5084498;28;20044;-68
2021/07/09 03:32:57;;;;;;;24.50;12.95;;;;;;;13.57;78.46;102287.53;5084176;28;20025;-69
2021/07/09 03:35:22;;;;;;;26.17;13.52;;;;;;;13.58;78.96;102281.41;5084072;28;20046;-69
2021/07/09 03:37:47;;;;;;;19.50;13.10;;;;;;;13.65;79.54;102285.88;5084646;28;20029;-68
2021/07/09 03:40:13;;;;;;;24.15;14.15;;;;;;;13.74;79.93;102282.41;5082142;28;20056;-68
2021/07/09 03:42:39;;;;;;;27.10;14.80;;;;;;;13.83;79.58;102283.34;5084589;28;20024;-68
2021/07/09 03:45:05;;;;;;;23.63;13.65;;;;;;;13.88;79.37;102288.69;5084633;28;20024;-68
2021/07/09 03:47:30;;;;;;;22.52;13.30;;;;;;;13.94;79.32;102280.81;5031520;28;20068;-68
2021/07/09 03:49:56;;;;;;;22.30;14.80;;;;;;;14.00;79.19;102285.25;5044355;28;20450;-68
2021/07/09 03:52:21;;;;;;;20.33;12.45;;;;;;;14.03;78.75;102283.53;5044409;28;20029;-69
2021/07/09 03:54:46;;;;;;;18.67;12.07;;;;;;;14.07;78.94;102286.19;5042666;28;20033;-69
2021/07/09 03:57:12;;;;;;;18.85;12.93;;;;;;;14.09;78.95;102287.09;5036112;28;20033;-68
2021/07/09 03:59:37;;;;;;;23.92;13.75;;;;;;;14.10;78.95;102291.47;5044748;28;20033;-69
2021/07/09 04:02:03;;;;;;;21.10;12.80;;;;;;;14.14;78.91;102298.56;5043697;28;20037;-68
2021/07/09 04:04:28;;;;;;;20.08;12.48;;;;;;;14.16;79.10;102296.84;5041916;28;20033;-69
2021/07/09 04:06:54;;;;;;;21.60;13.55;;;;;;;14.17;78.78;102298.59;5042905;28;20107;-68
2021/07/09 04:09:19;;;;;;;18.90;12.85;;;;;;;14.19;78.77;102297.72;5042928;28;20033;-68
2021/07/09 04:11:44;;;;;;;19.17;11.88;;;;;;;14.23;79.19;102291.59;5042134;28;20033;-69
2021/07/09 04:14:10;;;;;;;20.15;12.80;;;;;;;14.24;78.91;102297.75;5042425;28;20029;-68
2021/07/09 04:16:35;;;;;;;21.67;11.32;;;;;;;14.28;78.75;102298.66;5042924;28;20033;-69
2021/07/09 04:19:00;;;;;;;20.27;11.73;;;;;;;14.29;78.95;102303.97;5043854;28;20037;-69
2021/07/09 04:21:26;;;;;;;19.45;12.05;;;;;;;14.34;79.17;102303.97;5044517;28;20033;-68
2021/07/09 04:23:51;;;;;;;17.55;11.55;;;;;;;14.39;78.69;102318.13;5042575;28;20030;-68
2021/07/09 04:26:17;;;;;;;18.63;12.10;;;;;;;14.47;78.86;102307.59;5043888;28;20037;-68
2021/07/09 04:28:42;;;;;;;20.23;11.75;;;;;;;14.55;78.35;102312.03;5044049;28;20033;-69
2021/07/09 04:31:07;;;;;;;20.13;12.07;;;;;;;14.60;78.55;102307.69;5042962;28;20060;-69
2021/07/09 04:33:33;;;;;;;18.83;11.50;;;;;;;14.65;78.67;102306.81;5039705;28;20026;-69
2021/07/09 04:35:58;;;;;;;20.77;12.95;;;;;;;14.71;78.64;102307.75;5044012;28;20026;-69
2021/07/09 04:38:23;;;;;;;21.63;12.13;;;;;;;14.77;78.03;102310.41;5043425;28;20041;-69
2021/07/09 04:40:49;;;;;;;23.15;12.55;;;;;;;14.83;78.12;102304.25;5043216;28;20043;-69
2021/07/09 04:43:14;;;;;;;22.50;11.73;;;;;;;14.91;78.06;102306.94;5043119;28;20026;-68
2021/07/09 04:45:40;;;;;;;21.58;12.43;;;;;;;14.98;78.17;102312.25;5042193;28;20021;-67
2021/07/09 04:48:06;;;;;;;16.13;10.90;;;;;;;15.09;77.24;102311.41;5058963;28;20105;-68
2021/07/09 04:50:31;;;;;;;23.30;13.18;;;;;;;15.14;77.13;102310.56;5063437;28;20037;-68
2021/07/09 04:52:57;;;;;;;20.30;12.50;;;;;;;15.24;77.25;102314.09;5060202;28;20041;-68
2021/07/09 04:55:22;;;;;;;18.90;13.30;;;;;;;15.32;77.04;102311.47;5056269;28;20028;-68
2021/07/09 04:57:48;;;;;;;22.40;12.77;;;;;;;15.40;77.51;102309.69;5063194;28;20037;-68
2021/07/09 05:00:14;;;;;;;23.20;12.20;;;;;;;15.48;76.84;102313.25;5063453;28;20387;-69
2021/07/09 05:02:39;;;;;;;22.38;12.30;;;;;;;15.57;76.41;102312.38;5063475;28;20036;-68
2021/07/09 05:05:06;;;;;;;20.83;12.57;;;;;;;15.65;76.22;102315.03;5062720;28;20044;-68
2021/07/09 05:07:32;;;;;;;22.55;12.43;;;;;;;15.69;76.26;102308.84;5045707;28;20040;-68
2021/07/09 05:09:57;;;;;;;22.00;13.52;;;;;;;15.71;75.98;102309.75;5063458;28;20040;-67
2021/07/09 05:12:23;;;;;;;23.90;13.40;;;;;;;15.78;76.30;102323.03;5062998;28;20029;-68
2021/07/09 05:14:48;;;;;;;27.20;14.35;;;;;;;15.84;76.00;102327.47;5063283;28;20036;-68
2021/07/09 05:17:13;;;;;;;24.40;14.50;;;;;;;15.92;75.49;102327.44;5062301;28;20086;-68
2021/07/09 05:19:39;;;;;;;22.05;13.20;;;;;;;16.01;75.80;102334.50;5061776;28;20036;-68
2021/07/09 05:22:04;;;;;;;22.52;13.60;;;;;;;16.05;75.67;102331.88;5063570;28;20041;-68
2021/07/09 05:24:30;;;;;;;26.75;14.07;;;;;;;16.12;74.77;102328.31;5062329;28;20048;-68
2021/07/09 05:26:55;;;;;;;27.02;14.48;;;;;;;16.18;74.95;102328.31;5062863;28;20075;-67
2021/07/09 05:29:20;;;;;;;24.92;14.82;;;;;;;16.25;74.32;102320.34;5061444;28;20036;-67
2021/07/09 05:31:46;;;;;;;24.15;13.80;;;;;;;16.30;73.98;102315.91;5067298;28;20392;-68
2021/07/09 05:34:11;;;;;;;26.83;14.05;;;;;;;16.33;74.23;102322.09;5066347;28;20110;-68
2021/07/09 05:36:37;;;;;;;25.92;13.75;;;;;;;16.37;73.89;102313.25;5067026;28;20025;-68
2021/07/09 05:39:03;;;;;;;24.40;14.15;;;;;;;16.49;73.41;102322.06;5049273;28;20037;-68
2021/07/09 05:41:29;;;;;;;21.95;12.45;;;;;;;16.64;71.85;102319.34;5064816;28;20063;-68
2021/07/09 05:43:54;;;;;;;18.60;12.95;;;;;;;16.81;71.09;102323.72;5062336;28;20107;-68
2021/07/09 05:46:19;;;;;;;19.45;12.10;;;;;;;16.94;70.42;102331.66;5068720;28;20056;-68
2021/07/09 05:48:45;;;;;;;18.95;11.60;;;;;;;17.02;70.33;102318.34;5086620;28;20036;-68
2021/07/09 05:51:10;;;;;;;21.13;12.65;;;;;;;17.15;69.04;102320.03;5086393;28;20032;-70
2021/07/09 05:53:36;;;;;;;22.05;12.98;;;;;;;17.23;68.68;102319.13;5086174;28;20028;-68
2021/07/09 05:56:01;;;;;;;23.20;12.95;;;;;;;17.26;69.14;102317.34;5086847;28;20547;-68
2021/07/09 05:58:26;;;;;;;19.58;12.65;;;;;;;17.39;69.22;102320.78;5067186;28;20020;-68
2021/07/09 06:00:52;;;;;;;26.02;13.73;;;;;;;17.47;68.11;102316.31;5086427;28;20510;-68
2021/07/09 06:03:17;;;;;;;20.73;13.60;;;;;;;17.54;67.94;102323.34;5085085;28;20123;-68
2021/07/09 06:05:42;;;;;;;19.95;13.13;;;;;;;17.53;67.90;102316.25;5085272;28;20025;-68
2021/07/09 06:08:08;;;;;;;20.13;13.55;;;;;;;17.56;68.18;102319.78;5085905;28;20029;-68
2021/07/09 06:10:35;;;;;;;19.55;13.20;;;;;;;17.62;68.37;102325.94;5066253;28;20025;-65
2021/07/09 06:13:01;;;;;;;19.30;13.10;;;;;;;17.75;67.07;102326.75;5065625;28;20141;-70
2021/07/09 06:15:26;;;;;;;24.85;15.73;;;;;;;17.68;66.83;102323.22;5085668;28;20036;-69
2021/07/09 06:17:52;;;;;;;26.20;16.10;;;;;;;17.74;67.33;102316.97;5085772;28;20082;-69
2021/07/09 06:20:17;;;;;;;26.00;16.10;;;;;;;17.84;68.01;102321.34;5085468;28;20044;-69
2021/07/09 06:22:42;;;;;;;26.55;17.52;;;;;;;17.87;66.54;102320.47;5085775;28;20043;-69
2021/07/09 06:25:08;;;;;;;24.15;16.70;;;;;;;17.90;66.27;102323.06;5085768;28;20025;-70
2021/07/09 06:27:34;;;;;;;28.83;16.95;;;;;;;17.90;66.51;102309.78;5085385;28;20032;-68
2021/07/09 06:29:59;;;;;;;28.17;17.52;;;;;;;17.85;66.99;102312.50;5086384;28;20368;-69
2021/07/09 06:32:25;;;;;;;21.70;15.27;;;;;;;18.02;67.01;102312.34;5085786;28;20556;-68
2021/07/09 06:34:50;;;;;;;23.65;17.27;;;;;;;18.20;65.92;102308.59;5085187;28;20610;-68
2021/07/09 06:37:15;;;;;;;23.50;16.67;;;;;;;18.36;65.18;102304.03;5067646;28;20460;-68
2021/07/09 06:39:41;;;;;;;25.70;18.23;;;;;;;18.34;65.16;102305.81;5067461;28;20041;-68
2021/07/09 06:42:06;;;;;;;27.90;18.88;;;;;;;18.29;65.58;102303.19;5085294;28;20032;-68
2021/07/09 06:44:32;;;;;;;30.92;18.25;;;;;;;18.31;66.20;102301.41;5064349;28;20028;-69
2021/07/09 06:46:57;;;;;;;23.15;16.55;;;;;;;18.35;65.52;102296.06;5084436;28;20056;-69
2021/07/09 06:49:22;;;;;;;25.02;17.13;;;;;;;18.29;65.42;102302.31;5085325;28;20029;-69
2021/07/09 06:51:48;;;;;;;29.02;18.52;;;;;;;18.19;66.43;102304.19;5084944;28;20036;-69
2021/07/09 06:54:13;;;;;;;25.33;17.88;;;;;;;18.08;66.35;102300.75;5076558;28;20113;-67
2021/07/09 06:56:39;;;;;;;25.33;17.60;;;;;;;18.18;66.13;102297.09;5081540;28;20047;-66
2021/07/09 06:59:04;;;;;;;22.50;16.75;;;;;;;18.36;65.84;102296.03;5065665;28;20174;-66
2021/07/09 07:01:29;;;;;;;19.98;14.38;;;;;;;18.58;64.70;102296.69;5085347;28;20502;-66
2021/07/09 07:03:55;;;;;;;17.75;12.32;;;;;;;18.80;63.85;102297.31;5084443;28;20035;-68
2021/07/09 07:06:20;;;;;;;19.42;12.43;;;;;;;18.92;63.66;102293.59;5080621;28;20044;-66
2021/07/09 07:08:46;;;;;;;18.52;11.45;;;;;;;19.10;62.89;102308.47;5084946;28;20036;-66
2021/07/09 07:11:11;;;;;;;16.70;10.80;;;;;;;19.31;63.32;102301.94;5085472;28;20020;-66
2021/07/09 07:13:36;;;;;;;17.25;11.05;;;;;;;19.44;61.79;102306.16;5034558;28;20025;-67
2021/07/09 07:16:02;;;;;;;17.08;10.70;;;;;;;19.70;62.67;102299.56;5064575;28;20041;-66
2021/07/09 07:18:27;;;;;;;17.85;11.70;;;;;;;19.91;61.97;102297.47;5084075;28;20020;-67
2021/07/09 07:20:53;;;;;;;19.23;11.40;;;;;;;20.03;60.51;102306.09;5084632;28;20043;-68
2021/07/09 07:23:19;;;;;;;17.15;10.88;;;;;;;20.08;61.13;102306.03;5084196;28;20059;-68
2021/07/09 07:25:46;;;;;;;18.58;10.25;;;;;;;20.21;60.09;102301.38;5060019;28;20096;-69
2021/07/09 07:28:13;;;;;;;16.55;9.98;;;;;;;20.28;58.92;102294.97;5037870;28;20211;-66
2021/07/09 07:30:39;;;;;;;17.60;10.52;;;;;;;20.40;58.57;102294.75;5038443;28;20041;-65
2021/07/09 07:33:04;;;;;;;16.83;10.05;;;;;;;20.61;59.79;102293.47;5082868;28;20081;-65
2021/07/09 07:35:30;;;;;;;13.65;8.07;;;;;;;20.78;57.60;102298.44;5082682;28;20033;-66
2021/07/09 07:37:56;;;;;;;13.23;9.27;;;;;;;20.72;57.19;102300.34;5081825;28;20137;-67
2021/07/09 07:40:21;;;;;;;16.75;8.90;;;;;;;20.77;58.68;102295.81;5061006;28;20037;-67
2021/07/09 07:42:46;;;;;;;12.63;7.82;;;;;;;20.91;58.20;102295.53;5076108;28;20029;-68
2021/07/09 07:45:12;;;;;;;12.27;7.88;;;;;;;21.01;57.08;102302.41;5083751;28;20081;-67
2021/07/09 07:47:38;;;;;;;13.45;8.45;;;;;;;21.00;57.28;102296.19;5051594;28;20045;-68
2021/07/09 07:50:04;;;;;;;11.73;7.55;;;;;;;21.10;57.47;102302.22;5076861;28;20056;-65
2021/07/09 07:52:29;;;;;;;14.82;7.80;;;;;;;21.14;55.94;102295.88;5082828;28;20029;-67
2021/07/09 07:54:55;;;;;;;15.00;8.57;;;;;;;21.00;56.56;102297.97;5075717;28;20025;-67
2021/07/09 07:57:20;;;;;;;14.40;8.27;;;;;;;20.87;57.76;102307.16;5063817;28;20032;-67
2021/07/09 07:59:46;;;;;;;13.43;8.20;;;;;;;20.94;57.58;102307.00;5079305;28;20037;-67
2021/07/09 08:02:11;;;;;;;12.63;7.22;;;;;;;20.99;57.18;102302.44;5080621;28;20036;-66
2021/07/09 08:04:37;;;;;;;14.80;8.07;;;;;;;20.89;57.72;102305.34;5077255;28;20064;-67
2021/07/09 08:07:03;;;;;;;14.23;7.70;;;;;;;20.92;57.23;102308.81;5078086;28;20033;-67
2021/07/09 08:09:28;;;;;;;12.10;6.43;;;;;;;21.13;58.01;102312.81;5077427;28;20047;-67
2021/07/09 08:11:54;;;;;;;10.27;5.85;;;;;;;21.48;57.97;102316.50;5078214;28;20032;-67
2021/07/09 08:14:19;;;;;;;11.35;7.22;;;;;;;21.54;56.24;102310.13;5084112;28;20039;-66
2021/07/09 08:16:50;;;;;;;7.93;5.95;;;;;;;21.57;53.38;102307.41;5081752;28;20044;-68
2021/07/09 08:19:16;;;;;;;11.95;6.75;;;;;;;21.21;55.16;102310.88;5078624;28;20056;-66
2021/07/09 08:21:41;;;;;;;10.18;6.22;;;;;;;20.86;55.82;102302.75;5080641;28;20356;-67
2021/07/09 08:24:06;;;;;;;12.23;6.95;;;;;;;20.77;56.04;102301.16;5081939;28;20089;-67
2021/07/09 08:26:32;;;;;;;8.25;6.20;;;;;;;20.95;55.36;102302.56;5075944;28;20819;-66
2021/07/09 08:28:57;;;;;;;11.02;6.53;;;;;;;21.18;55.69;102305.56;5076358;28;20029;-66
2021/07/09 08:31:23;;;;;;;7.93;5.45;;;;;;;21.53;54.24;102313.72;5076952;28;20791;-66
2021/07/09 08:33:49;;;;;;;8.75;6.30;;;;;;;21.69;52.57;102307.06;5081393;28;20036;-66
2021/07/09 08:36:15;;;;;;;8.80;5.78;;;;;;;21.86;52.71;102303.09;5083087;28;20036;-67
2021/07/09 08:38:40;;;;;;;9.05;6.35;;;;;;;22.04;52.43;102301.72;5081830;28;20032;-66
2021/07/09 08:41:06;;;;;;;8.45;4.88;;;;;;;22.29;52.10;102293.97;5083661;28;20039;-67
2021/07/09 08:43:32;;;;;;;9.25;5.78;;;;;;;22.41;53.66;102292.72;5083246;28;20063;-66
2021/07/09 08:45:58;;;;;;;6.45;5.63;;;;;;;22.45;51.35;102295.25;5066990;28;20450;-67
2021/07/09 08:48:24;;;;;;;7.60;5.72;;;;;;;22.62;51.12;102286.75;5081944;28;20052;-67
2021/07/09 08:50:49;;;;;;;9.35;5.82;;;;;;;22.78;52.81;102288.06;5048758;28;20058;-67
2021/07/09 08:53:15;;;;;;;11.57;6.18;;;;;;;22.92;49.83;102284.94;5072896;28;20029;-68
2021/07/09 08:55:40;;;;;;;8.32;5.78;;;;;;;23.24;48.82;102280.41;5076202;28;20029;-67
2021/07/09 08:58:06;;;;;;;11.07;6.20;;;;;;;23.16;50.40;102283.34;5082592;28;20036;-67
2021/07/09 09:00:31;;;;;;;7.15;6.32;;;;;;;22.91;51.80;102274.25;5079007;28;20641;-68
2021/07/09 09:02:57;;;;;;;14.73;6.43;;;;;;;22.89;51.38;102285.06;5083953;28;20032;-64
2021/07/09 09:05:24;;;;;;;10.20;6.82;;;;;;;22.89;52.04;102284.16;5060726;28;20294;-65
2021/07/09 09:08:02;;;;;;;6.78;5.20;;;;;;;22.77;49.91;102280.91;5067369;28;20025;-66
2021/07/09 09:10:35;;;;;;;9.03;5.40;;;;;;;22.67;49.46;102287.50;5085866;28;20115;-66
2021/07/09 09:13:23;;;;;;;8.02;5.28;;;;;;;22.56;49.90;102287.81;5082029;28;20045;-65
2021/07/09 09:16:10;;;;;;;6.93;5.32;;;;;;;22.51;50.84;102287.06;5066741;28;20024;-65
2021/07/09 09:18:46;;;;;;;6.93;5.35;;;;;;;22.61;50.35;102286.78;5083008;28;20036;-67
2021/07/09 09:21:22;;;;;;;8.60;6.55;;;;;;;22.34;51.55;102274.16;5083118;28;20032;-65
2021/07/09 09:23:47;;;;;;;8.95;6.22;;;;;;;22.30;51.33;102287.66;5081380;28;20025;-65
2021/07/09 09:26:13;;;;;;;10.48;6.47;;;;;;;22.28;52.73;102282.34;5082186;28;20029;-66
2021/07/09 09:28:38;;;;;;;9.05;5.80;;;;;;;22.17;50.88;102292.44;5057936;28;20053;-65
2021/07/09 09:31:04;;;;;;;7.68;5.68;;;;;;;22.32;50.09;102291.19;5081413;28;20028;-66
2021/07/09 09:33:34;;;;;;;10.38;6.68;;;;;;;22.46;49.80;102289.00;5064031;28;20037;-64
2021/07/09 09:35:59;;;;;;;6.30;5.57;;;;;;;22.65;51.53;102291.16;5061245;28;20024;-66
2021/07/09 09:38:26;;;;;;;11.27;6.45;;;;;;;22.65;51.56;102285.78;5078830;28;20051;-66
2021/07/09 09:40:52;;;;;;;10.25;6.57;;;;;;;22.79;49.95;102283.56;5082681;28;20030;-66
2021/07/09 09:43:19;;;;;;;10.25;6.32;;;;;;;23.01;50.74;102283.78;5081808;28;20017;-66
2021/07/09 09:45:45;;;;;;;7.85;4.72;;;;;;;23.39;47.74;102281.72;5078142;28;20059;-64
2021/07/09 09:48:12;;;;;;;9.55;6.65;;;;;;;23.30;49.42;102290.94;5059159;28;20155;-64
2021/07/09 09:50:55;;;;;;;10.02;5.97;;;;;;;23.30;50.44;102290.94;5078693;28;20061;-65
2021/07/09 09:53:31;;;;;;;9.38;5.75;;;;;;;23.44;47.62;102281.56;5024910;28;20049;-66
2021/07/09 09:56:06;;;;;;;7.72;5.05;;;;;;;23.67;46.97;102279.00;4997203;28;20063;-66
2021/07/09 09:58:32;;;;;;;8.73;6.10;;;;;;;23.60;48.06;102280.13;5020782;28;69664;-65
2021/07/09 10:00:57;;;;;;;7.82;5.28;;;;;;;23.65;46.53;102285.34;5014198;28;20067;-64
2021/07/09 10:03:23;;;;;;;9.10;6.10;;;;;;;23.70;46.30;102281.56;5081859;28;20101;-66
2021/07/09 10:05:49;;;;;;;6.85;5.70;;;;;;;23.72;46.45;102274.34;5082446;28;20039;-65
2021/07/09 10:08:19;;;;;;;6.68;5.22;;;;;;;23.96;46.70;102279.81;5082566;28;20446;-65
2021/07/09 10:10:45;;;;;;;12.45;6.82;;;;;;;23.80;47.96;102278.59;5083524;28;20052;-65
2021/07/09 10:13:13;;;;;;;10.10;6.68;;;;;;;23.55;47.99;102276.72;5080737;28;20032;-66
2021/07/09 10:15:39;;;;;;;9.73;6.05;;;;;;;23.33;48.72;102284.63;5076476;28;20036;-67
2021/07/09 10:18:05;;;;;;;11.18;6.53;;;;;;;23.01;49.72;102270.38;5058759;28;20123;-66
2021/07/09 10:20:30;;;;;;;11.25;6.68;;;;;;;22.72;50.21;102277.53;5048122;28;20020;-65
2021/07/09 10:22:57;;;;;;;9.73;7.63;;;;;;;22.52;51.69;102280.78;5062999;28;20032;-67
2021/07/09 10:25:23;;;;;;;12.27;8.52;;;;;;;22.19;52.33;102269.19;5081688;28;20029;-67
2021/07/09 10:27:49;;;;;;;14.68;8.45;;;;;;;21.90;53.69;102276.22;5063959;28;20029;-66
2021/07/09 10:30:14;;;;;;;14.80;8.05;;;;;;;21.92;54.55;102281.53;5060803;28;20428;-68
2021/07/09 10:32:48;;;;;;;13.60;9.13;;;;;;;21.88;53.31;102275.38;5060972;28;20049;-67
2021/07/09 10:35:32;;;;;;;12.32;9.88;;;;;;;21.69;53.30;102272.31;5064982;28;20051;-69
2021/07/09 10:38:22;;;;;;;12.93;8.75;;;;;;;21.83;52.97;102276.41;5081925;28;20041;-67
2021/07/09 10:40:48;;;;;;;15.27;8.57;;;;;;;22.00;52.53;102275.06;5082358;28;20029;-68
2021/07/09 10:43:14;;;;;;;12.70;8.38;;;;;;;22.02;53.04;102276.81;5083394;28;20040;-68
2021/07/09 10:45:39;;;;;;;13.00;9.48;;;;;;;21.91;53.42;102269.97;5084499;28;20082;-62
2021/07/09 10:48:17;;;;;;;12.93;8.15;;;;;;;21.94;53.15;102277.00;5000424;28;66294;-62
2021/07/09 10:50:43;;;;;;;10.63;8.55;;;;;;;21.99;52.54;102272.44;5058257;28;20040;-62
2021/07/09 10:53:11;;;;;;;14.13;9.23;;;;;;;21.92;52.41;102271.69;5063316;28;20029;-61
2021/07/09 10:55:46;;;;;;;16.38;10.07;;;;;;;21.80;52.23;102272.91;5080052;28;20091;-62
2021/07/09 10:58:22;;;;;;;13.82;9.07;;;;;;;21.63;53.23;102272.47;5082248;28;20055;-61
2021/07/09 11:00:55;;;;;;;11.10;9.45;;;;;;;21.57;53.81;102278.84;5082469;28;20097;-61
2021/07/09 11:03:43;;;;;;;14.82;10.20;;;;;;;21.81;53.39;102268.44;5062974;28;20118;-61
2021/07/09 11:06:08;;;;;;;10.57;9.45;;;;;;;22.03;51.92;102270.53;5064941;28;20032;-61
2021/07/09 11:08:33;;;;;;;12.43;8.63;;;;;;;22.15;51.23;102270.19;5077595;28;20050;-62